sensor_id;sensor_type;location;lat;lon;timestamp;pressure;altitude;pressure_sealevel;temperature;humidity
11444;BME280;5778;47.856;12.154;2023-09-19T00:00:25;96045.00;;;17.15;100.00
11444;BME280;5778;47.856;12.154;2023-09-19T00:02:53;96048.19;;;17.17;100.00
11444;BME280;5778;47.856;12.154;2023-09-19T00:05:20;96046.00;;;17.19;100.00
11444;BME280;5778;47.856;12.154;2023-09-19T00:07:50;96047.28;;;17.21;100.00
11444;BME280;5778;47.856;12.154;2023-09-19T00:10:19;96048.31;;;17.12;100.00
11444;BME280;5778;47.856;12.154;2023-09-19T00:15:15;96044.41;;;17.18;100.00
11444;BME280;5778;47.856;12.154;2023-09-19T00:17:43;96038.44;;;17.21;100.00
11444;BME280;5778;47.856;12.154;2023-09-19T00:20:11;96038.34;;;17.12;100.00
11444;BME280;5778;47.856;12.154;2023-09-19T00:22:40;96048.47;;;17.29;100.00
11444;BME280;5778;47.856;12.154;2023-09-19T00:25:08;96043.41;;;17.41;100.00
11444;BME280;5778;47.856;12.154;2023-09-19T00:27:37;96037.34;;;17.35;100.00
11444;BME280;5778;47.856;12.154;2023-09-19T00:30:09;96045.72;;;17.20;100.00
11444;BME280;5778;47.856;12.154;2023-09-19T00:32:42;96045.53;;;17.17;100.00
11444;BME280;5778;47.856;12.154;2023-09-19T00:35:10;96051.47;;;17.14;100.00
11444;BME280;5778;47.856;12.154;2023-09-19T00:37:37;96048.00;;;17.13;100.00
11444;BME280;5778;47.856;12.154;2023-09-19T00:40:07;96047.91;;;17.05;100.00
11444;BME280;5778;47.856;12.154;2023-09-19T00:42:38;96055.06;;;16.96;100.00
11444;BME280;5778;47.856;12.154;2023-09-19T00:45:07;96044.22;;;17.01;100.00
11444;BME280;5778;47.856;12.154;2023-09-19T00:47:36;96046.41;;;16.99;100.00
11444;BME280;5778;47.856;12.154;2023-09-19T00:50:06;96057.03;;;17.04;100.00
11444;BME280;5778;47.856;12.154;2023-09-19T00:52:34;96056.47;;;17.07;100.00
11444;BME280;5778;47.856;12.154;2023-09-19T00:55:02;96051.75;;;17.26;100.00
11444;BME280;5778;47.856;12.154;2023-09-19T00:57:30;96049.59;;;17.14;100.00
11444;BME280;5778;47.856;12.154;2023-09-19T01:00:00;96057.03;;;17.04;100.00
11444;BME280;5778;47.856;12.154;2023-09-19T01:02:31;96047.09;;;16.91;100.00
11444;BME280;5778;47.856;12.154;2023-09-19T01:04:58;96046.91;;;17.01;100.00
11444;BME280;5778;47.856;12.154;2023-09-19T01:07:26;96053.88;;;16.88;100.00
11444;BME280;5778;47.856;12.154;2023-09-19T01:09:55;96057.25;;;17.07;100.00
11444;BME280;5778;47.856;12.154;2023-09-19T01:12:35;96051.38;;;17.05;100.00
11444;BME280;5778;47.856;12.154;2023-09-19T01:15:12;96056.28;;;17.44;100.00
11444;BME280;5778;47.856;12.154;2023-09-19T01:17:46;96068.72;;;17.40;100.00
11444;BME280;5778;47.856;12.154;2023-09-19T01:20:21;96070.47;;;17.31;100.00
11444;BME280;5778;47.856;12.154;2023-09-19T01:23:01;96070.31;;;17.41;100.00
11444;BME280;5778;47.856;12.154;2023-09-19T01:25:54;96066.56;;;17.64;100.00
11444;BME280;5778;47.856;12.154;2023-09-19T01:28:32;96063.69;;;17.33;100.00
11444;BME280;5778;47.856;12.154;2023-09-19T01:31:09;96075.19;;;17.39;100.00
11444;BME280;5778;47.856;12.154;2023-09-19T01:33:55;96070.09;;;17.10;100.00
11444;BME280;5778;47.856;12.154;2023-09-19T01:36:31;96069.19;;;17.15;100.00
11444;BME280;5778;47.856;12.154;2023-09-19T01:39:02;96062.94;;;17.06;100.00
11444;BME280;5778;47.856;12.154;2023-09-19T01:41:41;96072.28;;;17.22;100.00
11444;BME280;5778;47.856;12.154;2023-09-19T01:44:19;96070.47;;;17.04;100.00
11444;BME280;5778;47.856;12.154;2023-09-19T01:47:15;96071.56;;;17.03;100.00
11444;BME280;5778;47.856;12.154;2023-09-19T01:49:53;96080.03;;;16.96;100.00
11444;BME280;5778;47.856;12.154;2023-09-19T01:52:24;96072.78;;;16.97;100.00
11444;BME280;5778;47.856;12.154;2023-09-19T01:54:56;96078.63;;;16.99;100.00
11444;BME280;5778;47.856;12.154;2023-09-19T01:57:27;96088.78;;;17.02;100.00
11444;BME280;5778;47.856;12.154;2023-09-19T02:00:00;96090.91;;;17.18;100.00
11444;BME280;5778;47.856;12.154;2023-09-19T02:02:40;96083.31;;;17.07;100.00
11444;BME280;5778;47.856;12.154;2023-09-19T02:05:10;96098.97;;;17.05;100.00
11444;BME280;5778;47.856;12.154;2023-09-19T02:07:38;96117.25;;;17.03;100.00
11444;BME280;5778;47.856;12.154;2023-09-19T02:10:06;96128.19;;;16.93;100.00
11444;BME280;5778;47.856;12.154;2023-09-19T02:12:35;96139.91;;;16.83;100.00
11444;BME280;5778;47.856;12.154;2023-09-19T02:15:04;96133.44;;;16.84;100.00
11444;BME280;5778;47.856;12.154;2023-09-19T02:17:32;96130.94;;;16.88;100.00
11444;BME280;5778;47.856;12.154;2023-09-19T02:20:01;96141.19;;;16.86;100.00
11444;BME280;5778;47.856;12.154;2023-09-19T02:22:36;96147.06;;;16.88;100.00
11444;BME280;5778;47.856;12.154;2023-09-19T02:25:05;96158.41;;;16.85;100.00
11444;BME280;5778;47.856;12.154;2023-09-19T02:27:33;96160.78;;;16.73;100.00
11444;BME280;5778;47.856;12.154;2023-09-19T02:29:59;96159.84;;;16.64;100.00
11444;BME280;5778;47.856;12.154;2023-09-19T02:32:30;96154.06;;;16.57;100.00
11444;BME280;5778;47.856;12.154;2023-09-19T02:35:02;96144.13;;;16.39;100.00
11444;BME280;5778;47.856;12.154;2023-09-19T02:37:31;96131.84;;;16.33;100.00
11444;BME280;5778;47.856;12.154;2023-09-19T02:39:58;96137.00;;;16.48;100.00
11444;BME280;5778;47.856;12.154;2023-09-19T02:42:25;96143.84;;;16.40;100.00
11444;BME280;5778;47.856;12.154;2023-09-19T02:44:53;96154.50;;;16.27;100.00
11444;BME280;5778;47.856;12.154;2023-09-19T02:47:20;96155.16;;;16.19;100.00
11444;BME280;5778;47.856;12.154;2023-09-19T02:49:47;96156.22;;;16.36;100.00
11444;BME280;5778;47.856;12.154;2023-09-19T02:52:16;96163.63;;;16.63;100.00
11444;BME280;5778;47.856;12.154;2023-09-19T02:54:43;96154.56;;;16.40;100.00
11444;BME280;5778;47.856;12.154;2023-09-19T02:57:10;96165.53;;;16.44;100.00
11444;BME280;5778;47.856;12.154;2023-09-19T02:59:39;96169.63;;;16.36;100.00
11444;BME280;5778;47.856;12.154;2023-09-19T03:02:08;96160.81;;;16.36;100.00
11444;BME280;5778;47.856;12.154;2023-09-19T03:04:35;96168.22;;;16.44;100.00
11444;BME280;5778;47.856;12.154;2023-09-19T03:07:03;96177.94;;;16.40;100.00
11444;BME280;5778;47.856;12.154;2023-09-19T03:09:31;96165.81;;;16.24;100.00
11444;BME280;5778;47.856;12.154;2023-09-19T03:11:59;96165.50;;;16.25;100.00
11444;BME280;5778;47.856;12.154;2023-09-19T03:14:26;96166.81;;;16.28;100.00
11444;BME280;5778;47.856;12.154;2023-09-19T03:16:57;96164.06;;;16.51;100.00
11444;BME280;5778;47.856;12.154;2023-09-19T03:19:25;96169.47;;;16.65;100.00
11444;BME280;5778;47.856;12.154;2023-09-19T03:21:53;96166.81;;;16.28;100.00
11444;BME280;5778;47.856;12.154;2023-09-19T03:24:21;96164.56;;;16.35;100.00
11444;BME280;5778;47.856;12.154;2023-09-19T03:26:50;96166.44;;;16.71;100.00
11444;BME280;5778;47.856;12.154;2023-09-19T03:29:18;96166.09;;;16.59;100.00
11444;BME280;5778;47.856;12.154;2023-09-19T03:31:46;96175.72;;;16.79;100.00
11444;BME280;5778;47.856;12.154;2023-09-19T03:34:13;96165.59;;;17.03;100.00
11444;BME280;5778;47.856;12.154;2023-09-19T03:36:40;96164.53;;;17.17;100.00
11444;BME280;5778;47.856;12.154;2023-09-19T03:39:08;96162.13;;;17.02;100.00
11444;BME280;5778;47.856;12.154;2023-09-19T03:41:36;96170.69;;;17.04;100.00
11444;BME280;5778;47.856;12.154;2023-09-19T03:44:06;96168.19;;;17.08;100.00
11444;BME280;5778;47.856;12.154;2023-09-19T03:46:33;96167.53;;;17.16;100.00
11444;BME280;5778;47.856;12.154;2023-09-19T03:49:02;96174.22;;;17.18;100.00
11444;BME280;5778;47.856;12.154;2023-09-19T03:51:29;96176.19;;;17.13;100.00
11444;BME280;5778;47.856;12.154;2023-09-19T03:53:56;96172.78;;;17.07;100.00
11444;BME280;5778;47.856;12.154;2023-09-19T03:56:23;96169.97;;;16.99;100.00
11444;BME280;5778;47.856;12.154;2023-09-19T03:58:50;96168.19;;;16.94;100.00
11444;BME280;5778;47.856;12.154;2023-09-19T04:01:19;96166.22;;;17.00;100.00
11444;BME280;5778;47.856;12.154;2023-09-19T04:03:47;96167.19;;;17.04;100.00
11444;BME280;5778;47.856;12.154;2023-09-19T04:06:14;96165.28;;;16.91;100.00
11444;BME280;5778;47.856;12.154;2023-09-19T04:08:42;96162.41;;;16.87;100.00
11444;BME280;5778;47.856;12.154;2023-09-19T04:11:09;96165.34;;;16.72;100.00
11444;BME280;5778;47.856;12.154;2023-09-19T04:13:36;96170.41;;;16.74;100.00
11444;BME280;5778;47.856;12.154;2023-09-19T04:16:03;96167.03;;;16.82;100.00
11444;BME280;5778;47.856;12.154;2023-09-19T04:18:33;96168.56;;;16.56;100.00
11444;BME280;5778;47.856;12.154;2023-09-19T04:21:04;96166.53;;;16.48;100.00
11444;BME280;5778;47.856;12.154;2023-09-19T04:23:31;96182.13;;;16.64;100.00
11444;BME280;5778;47.856;12.154;2023-09-19T04:25:58;96175.38;;;16.67;100.00
11444;BME280;5778;47.856;12.154;2023-09-19T04:28:25;96184.56;;;16.61;100.00
11444;BME280;5778;47.856;12.154;2023-09-19T04:30:53;96178.50;;;16.55;100.00
11444;BME280;5778;47.856;12.154;2023-09-19T04:33:20;96186.34;;;16.52;100.00
11444;BME280;5778;47.856;12.154;2023-09-19T04:35:50;96186.06;;;16.53;100.00
11444;BME280;5778;47.856;12.154;2023-09-19T04:38:17;96193.56;;;16.70;100.00
11444;BME280;5778;47.856;12.154;2023-09-19T04:40:44;96195.19;;;16.84;100.00
11444;BME280;5778;47.856;12.154;2023-09-19T04:43:11;96189.38;;;16.64;100.00
11444;BME280;5778;47.856;12.154;2023-09-19T04:45:39;96202.00;;;16.63;100.00
11444;BME280;5778;47.856;12.154;2023-09-19T04:48:06;96203.75;;;16.54;100.00
11444;BME280;5778;47.856;12.154;2023-09-19T04:50:34;96209.31;;;16.76;100.00
11444;BME280;5778;47.856;12.154;2023-09-19T04:53:04;96217.66;;;16.75;100.00
11444;BME280;5778;47.856;12.154;2023-09-19T04:55:31;96222.56;;;16.54;100.00
11444;BME280;5778;47.856;12.154;2023-09-19T04:57:58;96222.75;;;17.08;100.00
11444;BME280;5778;47.856;12.154;2023-09-19T05:00:25;96227.03;;;16.77;100.00
11444;BME280;5778;47.856;12.154;2023-09-19T05:02:56;96232.69;;;17.08;100.00
11444;BME280;5778;47.856;12.154;2023-09-19T05:05:23;96241.47;;;17.13;100.00
11444;BME280;5778;47.856;12.154;2023-09-19T05:07:52;96244.13;;;17.00;100.00
11444;BME280;5778;47.856;12.154;2023-09-19T05:10:21;96234.72;;;16.65;100.00
11444;BME280;5778;47.856;12.154;2023-09-19T05:12:48;96250.41;;;17.09;100.00
11444;BME280;5778;47.856;12.154;2023-09-19T05:15:17;96251.19;;;16.59;100.00
11444;BME280;5778;47.856;12.154;2023-09-19T05:17:48;96252.66;;;16.70;100.00
11444;BME280;5778;47.856;12.154;2023-09-19T05:20:15;96255.09;;;16.85;100.00
11444;BME280;5778;47.856;12.154;2023-09-19T05:22:44;96257.81;;;17.17;100.00
11444;BME280;5778;47.856;12.154;2023-09-19T05:25:11;96259.31;;;17.23;100.00
11444;BME280;5778;47.856;12.154;2023-09-19T05:27:43;96256.63;;;17.23;100.00
11444;BME280;5778;47.856;12.154;2023-09-19T05:30:11;96260.59;;;16.93;100.00
11444;BME280;5778;47.856;12.154;2023-09-19T05:32:39;96262.75;;;17.10;100.00
11444;BME280;5778;47.856;12.154;2023-09-19T05:35:07;96264.34;;;17.11;100.00
11444;BME280;5778;47.856;12.154;2023-09-19T05:37:35;96269.69;;;16.79;100.00
11444;BME280;5778;47.856;12.154;2023-09-19T05:40:02;96271.00;;;16.81;100.00
11444;BME280;5778;47.856;12.154;2023-09-19T05:42:35;96275.13;;;16.92;100.00
11444;BME280;5778;47.856;12.154;2023-09-19T05:45:04;96273.97;;;17.30;100.00
11444;BME280;5778;47.856;12.154;2023-09-19T05:47:31;96270.16;;;17.50;100.00
11444;BME280;5778;47.856;12.154;2023-09-19T05:49:59;96276.41;;;17.45;100.00
11444;BME280;5778;47.856;12.154;2023-09-19T05:52:25;96281.59;;;17.55;100.00
11444;BME280;5778;47.856;12.154;2023-09-19T05:54:52;96280.50;;;17.70;100.00
11444;BME280;5778;47.856;12.154;2023-09-19T05:57:19;96283.41;;;17.46;100.00
11444;BME280;5778;47.856;12.154;2023-09-19T05:59:47;96288.84;;;17.41;100.00
11444;BME280;5778;47.856;12.154;2023-09-19T06:02:17;96293.06;;;17.47;100.00
11444;BME280;5778;47.856;12.154;2023-09-19T06:04:45;96288.88;;;17.55;100.00
11444;BME280;5778;47.856;12.154;2023-09-19T06:07:12;96293.75;;;17.53;100.00
11444;BME280;5778;47.856;12.154;2023-09-19T06:09:39;96294.94;;;17.47;100.00
11444;BME280;5778;47.856;12.154;2023-09-19T06:12:06;96298.13;;;17.49;100.00
11444;BME280;5778;47.856;12.154;2023-09-19T06:14:33;96300.09;;;17.43;100.00
11444;BME280;5778;47.856;12.154;2023-09-19T06:17:00;96292.94;;;17.20;100.00
11444;BME280;5778;47.856;12.154;2023-09-19T06:21:55;96295.22;;;17.13;100.00
11444;BME280;5778;47.856;12.154;2023-09-19T06:24:25;96301.59;;;17.17;100.00
11444;BME280;5778;47.856;12.154;2023-09-19T06:26:51;96297.25;;;17.35;100.00
11444;BME280;5778;47.856;12.154;2023-09-19T06:29:19;96305.00;;;17.23;100.00
11444;BME280;5778;47.856;12.154;2023-09-19T06:31:47;96298.06;;;17.35;100.00
11444;BME280;5778;47.856;12.154;2023-09-19T06:34:14;96298.13;;;17.17;100.00
11444;BME280;5778;47.856;12.154;2023-09-19T06:36:44;96306.53;;;17.10;100.00
11444;BME280;5778;47.856;12.154;2023-09-19T06:39:11;96306.97;;;17.17;100.00
11444;BME280;5778;47.856;12.154;2023-09-19T06:41:38;96308.94;;;17.12;100.00
11444;BME280;5778;47.856;12.154;2023-09-19T06:44:10;96306.59;;;17.24;100.00
11444;BME280;5778;47.856;12.154;2023-09-19T06:46:36;96308.50;;;17.55;100.00
11444;BME280;5778;47.856;12.154;2023-09-19T06:49:04;96311.97;;;17.24;100.00
11444;BME280;5778;47.856;12.154;2023-09-19T06:51:31;96315.94;;;17.26;100.00
11444;BME280;5778;47.856;12.154;2023-09-19T06:54:01;96315.44;;;17.43;100.00
11444;BME280;5778;47.856;12.154;2023-09-19T06:56:30;96314.38;;;17.57;100.00
11444;BME280;5778;47.856;12.154;2023-09-19T06:58:57;96317.75;;;17.49;100.00
11444;BME280;5778;47.856;12.154;2023-09-19T07:01:24;96327.06;;;17.38;100.00
11444;BME280;5778;47.856;12.154;2023-09-19T07:03:51;96320.59;;;17.39;100.00
11444;BME280;5778;47.856;12.154;2023-09-19T07:06:18;96325.56;;;17.14;100.00
11444;BME280;5778;47.856;12.154;2023-09-19T07:08:45;96331.91;;;17.55;100.00
11444;BME280;5778;47.856;12.154;2023-09-19T07:11:14;96332.41;;;17.57;100.00
11444;BME280;5778;47.856;12.154;2023-09-19T07:13:41;96332.25;;;17.80;100.00
11444;BME280;5778;47.856;12.154;2023-09-19T07:16:08;96337.84;;;17.84;100.00
11444;BME280;5778;47.856;12.154;2023-09-19T07:18:52;96339.41;;;17.85;100.00
11444;BME280;5778;47.856;12.154;2023-09-19T07:21:20;96343.53;;;18.09;100.00
11444;BME280;5778;47.856;12.154;2023-09-19T07:23:47;96343.53;;;18.09;100.00
11444;BME280;5778;47.856;12.154;2023-09-19T07:26:16;96346.31;;;17.91;100.00
11444;BME280;5778;47.856;12.154;2023-09-19T07:28:43;96351.75;;;17.72;100.00
11444;BME280;5778;47.856;12.154;2023-09-19T07:31:10;96348.63;;;17.97;100.00
11444;BME280;5778;47.856;12.154;2023-09-19T07:33:40;96349.00;;;17.91;100.00
11444;BME280;5778;47.856;12.154;2023-09-19T07:36:11;96355.50;;;18.17;100.00
11444;BME280;5778;47.856;12.154;2023-09-19T07:38:39;96352.44;;;18.37;100.00
11444;BME280;5778;47.856;12.154;2023-09-19T07:41:07;96350.22;;;18.52;100.00
11444;BME280;5778;47.856;12.154;2023-09-19T07:43:36;96357.75;;;18.91;100.00
11444;BME280;5778;47.856;12.154;2023-09-19T07:46:05;96348.59;;;18.78;100.00
11444;BME280;5778;47.856;12.154;2023-09-19T07:48:34;96355.09;;;18.77;100.00
11444;BME280;5778;47.856;12.154;2023-09-19T07:51:04;96362.31;;;19.04;100.00
11444;BME280;5778;47.856;12.154;2023-09-19T07:53:31;96363.31;;;19.08;100.00
11444;BME280;5778;47.856;12.154;2023-09-19T07:56:04;96352.69;;;18.76;100.00
11444;BME280;5778;47.856;12.154;2023-09-19T07:58:31;96369.88;;;18.80;100.00
11444;BME280;5778;47.856;12.154;2023-09-19T08:01:04;96359.31;;;18.70;100.00
11444;BME280;5778;47.856;12.154;2023-09-19T08:03:32;96357.16;;;18.80;100.00
11444;BME280;5778;47.856;12.154;2023-09-19T08:05:59;96358.69;;;18.73;100.00
11444;BME280;5778;47.856;12.154;2023-09-19T08:08:26;96365.31;;;19.02;100.00
11444;BME280;5778;47.856;12.154;2023-09-19T08:10:53;96367.81;;;19.34;100.00
11444;BME280;5778;47.856;12.154;2023-09-19T08:13:22;96366.66;;;19.27;100.00
11444;BME280;5778;47.856;12.154;2023-09-19T08:15:49;96364.84;;;18.87;100.00
11444;BME280;5778;47.856;12.154;2023-09-19T08:18:20;96359.03;;;19.42;100.00
11444;BME280;5778;47.856;12.154;2023-09-19T08:20:52;96354.25;;;19.70;100.00
11444;BME280;5778;47.856;12.154;2023-09-19T08:23:19;96358.44;;;19.76;100.00
11444;BME280;5778;47.856;12.154;2023-09-19T08:25:46;96351.06;;;19.90;100.00
11444;BME280;5778;47.856;12.154;2023-09-19T08:28:13;96348.16;;;20.47;100.00
11444;BME280;5778;47.856;12.154;2023-09-19T08:30:45;96343.91;;;20.63;100.00
11444;BME280;5778;47.856;12.154;2023-09-19T08:33:12;96355.59;;;20.50;100.00
11444;BME280;5778;47.856;12.154;2023-09-19T08:35:42;96354.91;;;20.28;100.00
11444;BME280;5778;47.856;12.154;2023-09-19T08:38:10;96354.44;;;20.04;100.00
11444;BME280;5778;47.856;12.154;2023-09-19T08:40:39;96357.56;;;19.89;100.00
11444;BME280;5778;47.856;12.154;2023-09-19T08:43:07;96352.47;;;19.87;100.00
11444;BME280;5778;47.856;12.154;2023-09-19T08:45:34;96359.41;;;19.80;100.00
11444;BME280;5778;47.856;12.154;2023-09-19T08:48:14;96352.69;;;19.99;100.00
11444;BME280;5778;47.856;12.154;2023-09-19T08:50:49;96357.56;;;19.89;100.00
11444;BME280;5778;47.856;12.154;2023-09-19T08:53:21;96357.00;;;19.78;100.00
11444;BME280;5778;47.856;12.154;2023-09-19T08:55:53;96357.19;;;19.82;100.00
11444;BME280;5778;47.856;12.154;2023-09-19T08:58:26;96360.22;;;20.50;100.00
11444;BME280;5778;47.856;12.154;2023-09-19T09:00:56;96355.69;;;20.76;100.00
11444;BME280;5778;47.856;12.154;2023-09-19T09:03:32;96356.59;;;20.63;100.00
11444;BME280;5778;47.856;12.154;2023-09-19T09:06:01;96359.13;;;20.51;100.00
11444;BME280;5778;47.856;12.154;2023-09-19T09:08:30;96361.88;;;20.68;100.00
11444;BME280;5778;47.856;12.154;2023-09-19T09:10:58;96361.09;;;20.67;100.00
11444;BME280;5778;47.856;12.154;2023-09-19T09:13:25;96355.91;;;20.96;100.00
11444;BME280;5778;47.856;12.154;2023-09-19T09:15:53;96353.78;;;20.85;100.00
11444;BME280;5778;47.856;12.154;2023-09-19T09:18:20;96347.81;;;21.22;100.00
11444;BME280;5778;47.856;12.154;2023-09-19T09:20:48;96355.25;;;21.84;100.00
11444;BME280;5778;47.856;12.154;2023-09-19T09:23:17;96361.91;;;21.95;100.00
11444;BME280;5778;47.856;12.154;2023-09-19T09:25:48;96354.00;;;22.28;100.00
11444;BME280;5778;47.856;12.154;2023-09-19T09:28:19;96351.34;;;22.57;100.00
11444;BME280;5778;47.856;12.154;2023-09-19T09:30:47;96345.94;;;22.11;100.00
11444;BME280;5778;47.856;12.154;2023-09-19T09:33:14;96353.28;;;22.10;100.00
11444;BME280;5778;47.856;12.154;2023-09-19T09:35:52;96355.28;;;22.22;100.00
11444;BME280;5778;47.856;12.154;2023-09-19T09:38:24;96350.47;;;22.36;100.00
11444;BME280;5778;47.856;12.154;2023-09-19T09:40:54;96348.84;;;21.97;100.00
11444;BME280;5778;47.856;12.154;2023-09-19T09:43:28;96342.69;;;22.26;100.00
11444;BME280;5778;47.856;12.154;2023-09-19T09:46:10;96355.69;;;21.95;100.00
11444;BME280;5778;47.856;12.154;2023-09-19T09:49:00;96354.63;;;21.87;100.00
11444;BME280;5778;47.856;12.154;2023-09-19T09:51:45;96354.50;;;22.21;100.00
11444;BME280;5778;47.856;12.154;2023-09-19T09:54:25;96346.28;;;22.47;100.00
11444;BME280;5778;47.856;12.154;2023-09-19T09:57:03;96348.84;;;22.72;100.00
11444;BME280;5778;47.856;12.154;2023-09-19T09:59:50;96344.97;;;22.15;100.00
11444;BME280;5778;47.856;12.154;2023-09-19T10:02:20;96357.16;;;21.67;100.00
11444;BME280;5778;47.856;12.154;2023-09-19T10:04:51;96359.44;;;22.28;100.00
11444;BME280;5778;47.856;12.154;2023-09-19T10:07:28;96355.28;;;22.22;100.00
11444;BME280;5778;47.856;12.154;2023-09-19T10:10:01;96342.72;;;21.54;100.00
11444;BME280;5778;47.856;12.154;2023-09-19T10:12:39;96353.88;;;21.19;100.00
11444;BME280;5778;47.856;12.154;2023-09-19T10:15:08;96351.16;;;21.19;100.00
11444;BME280;5778;47.856;12.154;2023-09-19T10:17:40;96342.56;;;21.34;100.00
11444;BME280;5778;47.856;12.154;2023-09-19T10:20:12;96343.63;;;21.58;100.00
11444;BME280;5778;47.856;12.154;2023-09-19T10:22:59;96349.69;;;21.64;100.00
11444;BME280;5778;47.856;12.154;2023-09-19T10:25:28;96349.84;;;21.76;100.00
11444;BME280;5778;47.856;12.154;2023-09-19T10:27:57;96345.66;;;21.95;100.00
11444;BME280;5778;47.856;12.154;2023-09-19T10:30:29;96337.75;;;21.82;100.00
11444;BME280;5778;47.856;12.154;2023-09-19T10:33:01;96342.16;;;21.95;100.00
11444;BME280;5778;47.856;12.154;2023-09-19T10:35:29;96353.22;;;21.81;100.00
11444;BME280;5778;47.856;12.154;2023-09-19T10:37:59;96341.13;;;22.16;100.00
11444;BME280;5778;47.856;12.154;2023-09-19T10:40:28;96349.19;;;21.96;100.00
11444;BME280;5778;47.856;12.154;2023-09-19T10:43:02;96341.38;;;22.32;100.00
11444;BME280;5778;47.856;12.154;2023-09-19T10:45:31;96345.13;;;22.19;100.00
11444;BME280;5778;47.856;12.154;2023-09-19T10:47:59;96351.31;;;22.28;100.00
11444;BME280;5778;47.856;12.154;2023-09-19T10:50:29;96343.25;;;22.48;100.00
11444;BME280;5778;47.856;12.154;2023-09-19T10:53:00;96348.44;;;22.24;100.00
11444;BME280;5778;47.856;12.154;2023-09-19T10:55:34;96343.41;;;22.52;100.00
11444;BME280;5778;47.856;12.154;2023-09-19T10:58:03;96346.91;;;22.52;100.00
11444;BME280;5778;47.856;12.154;2023-09-19T11:00:53;96351.75;;;22.30;100.00
11444;BME280;5778;47.856;12.154;2023-09-19T11:03:21;96339.47;;;22.99;100.00
11444;BME280;5778;47.856;12.154;2023-09-19T11:06:09;96342.13;;;22.78;100.00
11444;BME280;5778;47.856;12.154;2023-09-19T11:08:59;96338.78;;;22.81;100.00
11444;BME280;5778;47.856;12.154;2023-09-19T11:11:57;96346.03;;;23.39;100.00
11444;BME280;5778;47.856;12.154;2023-09-19T11:14:30;96339.28;;;22.95;100.00
11444;BME280;5778;47.856;12.154;2023-09-19T11:20:30;96332.06;;;23.49;100.00
11444;BME280;5778;47.856;12.154;2023-09-19T11:23:18;96332.44;;;23.71;100.00
11444;BME280;5778;47.856;12.154;2023-09-19T11:25:49;96343.47;;;23.75;100.00
11444;BME280;5778;47.856;12.154;2023-09-19T11:28:37;96333.03;;;23.44;100.00
11444;BME280;5778;47.856;12.154;2023-09-19T11:34:51;96336.25;;;22.47;100.00
11444;BME280;5778;47.856;12.154;2023-09-19T11:40:37;96340.38;;;22.53;100.00
11444;BME280;5778;47.856;12.154;2023-09-19T11:43:32;96340.81;;;22.84;100.00
11444;BME280;5778;47.856;12.154;2023-09-19T11:46:06;96332.59;;;23.22;100.00
11444;BME280;5778;47.856;12.154;2023-09-19T11:48:40;96337.84;;;22.48;100.00
11444;BME280;5778;47.856;12.154;2023-09-19T11:51:11;96325.34;;;23.05;100.00
11444;BME280;5778;47.856;12.154;2023-09-19T11:53:45;96333.06;;;22.74;100.00
11444;BME280;5778;47.856;12.154;2023-09-19T11:56:15;96335.78;;;22.37;100.00
11444;BME280;5778;47.856;12.154;2023-09-19T11:58:44;96331.13;;;22.17;100.00
11444;BME280;5778;47.856;12.154;2023-09-19T12:01:22;96329.72;;;22.02;100.00
11444;BME280;5778;47.856;12.154;2023-09-19T12:03:53;96331.72;;;22.22;100.00
11444;BME280;5778;47.856;12.154;2023-09-19T12:06:23;96317.56;;;23.24;100.00
11444;BME280;5778;47.856;12.154;2023-09-19T12:08:51;96315.19;;;23.55;100.00
11444;BME280;5778;47.856;12.154;2023-09-19T12:11:20;96333.59;;;23.38;97.40
11444;BME280;5778;47.856;12.154;2023-09-19T12:13:48;96327.75;;;23.48;99.36
11444;BME280;5778;47.856;12.154;2023-09-19T12:16:18;96318.75;;;23.35;90.76
11444;BME280;5778;47.856;12.154;2023-09-19T12:18:48;96307.66;;;23.93;89.35
11444;BME280;5778;47.856;12.154;2023-09-19T12:21:29;96321.56;;;23.27;79.46
11444;BME280;5778;47.856;12.154;2023-09-19T12:24:04;96311.47;;;23.48;84.25
11444;BME280;5778;47.856;12.154;2023-09-19T12:26:30;96338.41;;;23.85;88.54
11444;BME280;5778;47.856;12.154;2023-09-19T12:29:05;96312.66;;;23.71;97.20
11444;BME280;5778;47.856;12.154;2023-09-19T12:31:34;96306.00;;;24.37;93.00
11444;BME280;5778;47.856;12.154;2023-09-19T12:34:02;96320.69;;;24.00;95.62
11444;BME280;5778;47.856;12.154;2023-09-19T12:36:30;96317.09;;;23.87;100.00
11444;BME280;5778;47.856;12.154;2023-09-19T12:38:59;96307.22;;;23.59;100.00
11444;BME280;5778;47.856;12.154;2023-09-19T12:41:34;96308.75;;;23.48;100.00
11444;BME280;5778;47.856;12.154;2023-09-19T12:44:01;96314.44;;;23.14;100.00
11444;BME280;5778;47.856;12.154;2023-09-19T12:46:31;96309.72;;;23.64;99.84
11444;BME280;5778;47.856;12.154;2023-09-19T12:49:18;96304.84;;;23.69;83.80
11444;BME280;5778;47.856;12.154;2023-09-19T12:51:45;96306.53;;;23.62;89.41
11444;BME280;5778;47.856;12.154;2023-09-19T12:54:13;96290.66;;;23.52;87.27
11444;BME280;5778;47.856;12.154;2023-09-19T12:56:42;96300.47;;;23.77;92.68
11444;BME280;5778;47.856;12.154;2023-09-19T12:59:12;96301.63;;;23.88;92.81
11444;BME280;5778;47.856;12.154;2023-09-19T13:01:40;96305.97;;;24.01;93.78
11444;BME280;5778;47.856;12.154;2023-09-19T13:04:17;96297.59;;;24.18;96.13
11444;BME280;5778;47.856;12.154;2023-09-19T13:06:52;96305.53;;;24.11;89.10
11444;BME280;5778;47.856;12.154;2023-09-19T13:09:21;96304.66;;;23.86;94.63
11444;BME280;5778;47.856;12.154;2023-09-19T13:11:50;96298.75;;;24.17;95.17
11444;BME280;5778;47.856;12.154;2023-09-19T13:14:20;96294.78;;;24.26;87.05
11444;BME280;5778;47.856;12.154;2023-09-19T13:17:02;96305.44;;;23.75;84.10
11444;BME280;5778;47.856;12.154;2023-09-19T13:19:42;96294.09;;;24.41;81.92
11444;BME280;5778;47.856;12.154;2023-09-19T13:22:36;96293.13;;;24.58;72.05